Time;durP1;ratioP1;P1;durP2;ratioP2;P2;SDS_P1;SDS_P2;PMS_P1;PMS_P2;Temp;Humidity;BMP_temperature;BMP_pressure;BME280_temperature;BME280_humidity;BME280_pressure;Samples;Min_cycle;Max_cycle;Signal;HPM_P1;HPM_P2
2020/12/02 00:01:17;;;;;;;7.55;6.85;;;10.70;99.90;;;;;;5093284;28;20216;-81
2020/12/02 00:03:55;;;;;;;7.82;6.63;;;10.70;99.90;;;;;;5093075;28;20684;-81
2020/12/02 00:06:25;;;;;;;7.13;5.65;;;10.70;99.90;;;;;;5093430;28;20201;-81
2020/12/02 00:08:57;;;;;;;9.13;6.15;;;10.70;99.90;;;;;;5093099;28;20251;-81
2020/12/02 00:11:27;;;;;;;10.75;7.00;;;10.80;99.90;;;;;;5093851;28;20533;-82
2020/12/02 00:13:56;;;;;;;7.97;6.30;;;10.80;99.90;;;;;;5097123;28;20198;-81
2020/12/02 00:16:26;;;;;;;7.53;5.57;;;10.80;99.90;;;;;;5096642;28;20203;-81
2020/12/02 00:18:54;;;;;;;11.48;6.57;;;10.70;99.90;;;;;;5096899;28;20220;-81
2020/12/02 00:21:21;;;;;;;8.88;7.00;;;10.60;99.90;;;;;;5096701;28;20217;-81
2020/12/02 00:23:48;;;;;;;7.05;6.32;;;10.60;99.90;;;;;;5096833;28;20221;-81
2020/12/02 00:26:15;;;;;;;8.95;6.00;;;10.60;99.90;;;;;;5096830;28;20189;-81
2020/12/02 00:28:43;;;;;;;9.57;6.28;;;10.60;99.90;;;;;;5096878;28;20197;-81
2020/12/02 00:31:09;;;;;;;10.52;7.95;;;10.60;99.90;;;;;;5096736;28;20280;-81
2020/12/02 00:33:35;;;;;;;9.60;7.50;;;10.40;99.90;;;;;;5096579;28;20207;-81
2020/12/02 00:36:02;;;;;;;10.07;8.55;;;10.50;99.90;;;;;;5096724;28;20189;-82
2020/12/02 00:38:28;;;;;;;13.80;8.85;;;10.50;99.90;;;;;;5096800;28;20532;-83
2020/12/02 00:40:55;;;;;;;12.18;8.30;;;10.40;99.90;;;;;;5096602;28;20197;-81
2020/12/02 00:43:23;;;;;;;11.50;7.88;;;10.40;99.90;;;;;;5096384;28;20233;-81
2020/12/02 00:45:51;;;;;;;13.45;9.10;;;10.30;99.90;;;;;;5096574;28;20528;-81
2020/12/02 00:48:19;;;;;;;16.42;9.65;;;10.30;99.90;;;;;;5096379;28;20200;-81
2020/12/02 00:50:46;;;;;;;16.77;11.05;;;10.20;99.90;;;;;;5096163;28;20219;-81
2020/12/02 00:53:16;;;;;;;16.70;9.70;;;10.30;99.90;;;;;;5096586;28;20198;-81
2020/12/02 00:55:45;;;;;;;15.25;8.82;;;10.20;99.90;;;;;;5096187;28;20190;-81
2020/12/02 00:58:14;;;;;;;22.02;10.10;;;10.20;99.90;;;;;;5096122;28;20201;-81
2020/12/02 01:00:42;;;;;;;17.83;10.13;;;10.20;99.90;;;;;;5096177;28;20197;-81
2020/12/02 01:03:19;;;;;;;16.98;10.23;;;10.20;99.90;;;;;;5096076;28;20224;-82
2020/12/02 01:05:46;;;;;;;16.95;10.02;;;10.30;99.90;;;;;;5096049;28;20645;-81
2020/12/02 01:08:29;;;;;;;14.55;10.55;;;10.30;99.90;;;;;;5096119;28;20193;-81
2020/12/02 01:11:03;;;;;;;16.70;10.10;;;10.30;99.90;;;;;;5095918;28;20193;-81
2020/12/02 01:13:33;;;;;;;17.17;9.90;;;10.30;99.90;;;;;;5095751;28;20644;-81
2020/12/02 01:16:01;;;;;;;21.42;11.45;;;10.30;99.90;;;;;;5095721;28;20198;-81
2020/12/02 01:18:29;;;;;;;14.95;8.45;;;10.30;99.90;;;;;;5095801;28;20194;-82
2020/12/02 01:21:05;;;;;;;19.63;10.93;;;10.20;99.90;;;;;;5095479;28;20221;-81
2020/12/02 01:23:33;;;;;;;14.40;8.35;;;10.20;99.90;;;;;;5094871;28;20221;-81
2020/12/02 01:26:01;;;;;;;16.98;9.80;;;10.20;99.90;;;;;;5095735;28;20194;-81
2020/12/02 01:28:29;;;;;;;14.40;9.75;;;10.20;99.90;;;;;;5095783;28;20220;-82
2020/12/02 01:30:58;;;;;;;12.43;9.85;;;10.20;99.90;;;;;;5095591;28;20200;-81
2020/12/02 01:33:25;;;;;;;17.10;10.05;;;10.20;99.90;;;;;;5095484;28;20194;-81
2020/12/02 01:35:53;;;;;;;19.52;9.82;;;10.20;99.90;;;;;;5095535;28;20201;-81
2020/12/02 01:38:27;;;;;;;12.48;8.73;;;10.20;99.90;;;;;;5095524;28;20198;-81
2020/12/02 01:40:53;;;;;;;15.23;9.35;;;10.30;99.90;;;;;;5095439;28;20204;-81
2020/12/02 01:43:19;;;;;;;13.20;8.82;;;10.40;99.90;;;;;;5095374;28;20236;-81
2020/12/02 01:45:48;;;;;;;15.23;9.93;;;10.30;99.90;;;;;;5095511;28;20189;-81
2020/12/02 01:48:44;;;;;;;14.65;8.57;;;10.30;99.90;;;;;;5095225;28;20208;-81
2020/12/02 01:51:25;;;;;;;14.25;9.23;;;10.30;99.90;;;;;;5068019;28;20707;-81
2020/12/02 01:53:55;;;;;;;12.65;9.35;;;10.30;99.90;;;;;;5095226;28;20200;-81
2020/12/02 01:56:27;;;;;;;12.52;9.40;;;10.30;99.90;;;;;;5095113;28;20198;-82
2020/12/02 01:59:04;;;;;;;14.50;9.70;;;10.30;99.90;;;;;;5094950;28;20200;-81
2020/12/02 02:01:43;;;;;;;15.23;9.45;;;10.30;99.90;;;;;;5094922;28;20198;-81
2020/12/02 02:04:14;;;;;;;15.27;10.48;;;10.30;99.90;;;;;;5094792;28;20586;-81
2020/12/02 02:07:03;;;;;;;17.50;10.30;;;10.30;99.90;;;;;;5094909;28;20645;-83
2020/12/02 02:09:30;;;;;;;14.73;10.43;;;10.20;99.90;;;;;;5094856;28;20571;-83
2020/12/02 02:12:08;;;;;;;23.33;10.50;;;10.20;99.90;;;;;;5094674;28;20198;-82
2020/12/02 02:14:42;;;;;;;12.98;9.52;;;10.20;99.90;;;;;;5094558;28;20205;-81
2020/12/02 02:17:08;;;;;;;17.88;11.00;;;10.20;99.90;;;;;;5094490;28;20224;-83
2020/12/02 02:19:35;;;;;;;14.20;10.32;;;10.20;99.90;;;;;;5094603;28;20198;-81
2020/12/02 02:22:02;;;;;;;19.70;10.57;;;10.20;99.90;;;;;;5094420;28;20236;-81
2020/12/02 02:24:28;;;;;;;18.70;10.77;;;10.20;99.90;;;;;;5094630;28;20231;-82
2020/12/02 02:26:57;;;;;;;17.60;10.82;;;10.20;99.90;;;;;;5094659;28;20194;-81
2020/12/02 02:29:27;;;;;;;18.40;11.93;;;10.10;99.90;;;;;;5094833;28;20229;-81
2020/12/02 02:31:59;;;;;;;17.80;10.85;;;10.20;99.90;;;;;;5094476;28;20193;-81
2020/12/02 02:34:27;;;;;;;18.85;9.32;;;10.20;99.90;;;;;;5094579;28;20205;-81
2020/12/02 02:36:53;;;;;;;14.45;9.18;;;10.20;99.90;;;;;;5094408;28;20200;-81
2020/12/02 02:39:20;;;;;;;15.88;9.52;;;10.20;99.90;;;;;;5094308;28;20196;-82
2020/12/02 02:41:47;;;;;;;17.02;10.15;;;10.20;99.90;;;;;;5094431;28;20189;-82
2020/12/02 02:44:15;;;;;;;18.13;10.57;;;10.20;99.90;;;;;;5094144;28;20688;-82
2020/12/02 02:46:42;;;;;;;18.08;10.15;;;10.10;99.90;;;;;;5094177;28;20199;-81
2020/12/02 02:49:10;;;;;;;16.88;9.18;;;10.10;99.90;;;;;;5094157;28;20193;-82
2020/12/02 02:51:36;;;;;;;11.55;8.20;;;10.20;99.90;;;;;;5093883;28;20221;-81
2020/12/02 02:54:03;;;;;;;13.93;9.75;;;10.10;99.90;;;;;;5094198;28;20190;-81
2020/12/02 02:56:29;;;;;;;15.00;10.45;;;10.10;99.90;;;;;;5093915;28;20195;-81
2020/12/02 02:58:55;;;;;;;18.67;11.60;;;10.10;99.90;;;;;;5094210;28;20197;-82
2020/12/02 03:01:22;;;;;;;18.77;11.00;;;10.20;99.90;;;;;;5093887;28;20201;-81
2020/12/02 03:03:49;;;;;;;18.05;10.05;;;10.20;99.90;;;;;;5093827;28;20227;-81
2020/12/02 03:06:15;;;;;;;17.70;11.30;;;10.20;99.90;;;;;;5093858;28;20197;-81
2020/12/02 03:08:42;;;;;;;17.80;11.90;;;10.20;99.90;;;;;;5093734;28;20193;-81
2020/12/02 03:11:13;;;;;;;21.35;11.18;;;10.20;99.90;;;;;;5093565;28;20196;-81
2020/12/02 03:13:42;;;;;;;19.75;11.25;;;10.20;99.90;;;;;;5093683;28;20204;-81
2020/12/02 03:16:14;;;;;;;19.50;10.45;;;10.20;99.90;;;;;;5093355;28;20193;-81
2020/12/02 03:18:42;;;;;;;20.13;11.70;;;10.20;99.90;;;;;;5093560;28;20193;-81
2020/12/02 03:21:13;;;;;;;19.75;11.27;;;10.10;99.90;;;;;;5093441;28;20698;-81
2020/12/02 03:23:40;;;;;;;17.13;11.38;;;10.10;99.90;;;;;;5093428;28;20274;-81
2020/12/02 03:26:06;;;;;;;18.95;12.38;;;10.10;99.90;;;;;;5093708;28;20656;-81
2020/12/02 03:28:33;;;;;;;20.95;13.50;;;10.10;99.90;;;;;;5093628;28;20190;-81
2020/12/02 03:31:02;;;;;;;23.60;13.05;;;9.90;99.90;;;;;;5093393;28;20201;-82
2020/12/02 03:33:29;;;;;;;19.35;12.23;;;9.90;99.90;;;;;;5093610;28;20201;-81
2020/12/02 03:35:56;;;;;;;22.58;12.40;;;9.90;99.90;;;;;;5093376;28;20197;-81
2020/12/02 03:38:23;;;;;;;20.35;12.68;;;10.00;99.90;;;;;;5093617;28;20194;-82
2020/12/02 03:40:49;;;;;;;22.08;13.50;;;10.00;99.90;;;;;;5093359;28;20194;-81
2020/12/02 03:43:16;;;;;;;23.05;11.38;;;10.00;99.90;;;;;;5093235;28;20243;-81
2020/12/02 03:45:44;;;;;;;22.92;13.00;;;10.10;99.90;;;;;;5093373;28;20194;-81
2020/12/02 03:48:13;;;;;;;19.88;11.73;;;10.10;99.90;;;;;;5097510;28;20193;-81
2020/12/02 03:50:41;;;;;;;24.73;14.25;;;10.20;99.90;;;;;;5097424;28;20707;-81
2020/12/02 03:53:11;;;;;;;22.23;13.13;;;10.10;99.90;;;;;;5097309;28;20546;-82
2020/12/02 03:55:37;;;;;;;23.60;12.60;;;10.20;99.90;;;;;;5097522;28;20204;-81
2020/12/02 03:58:04;;;;;;;20.98;13.20;;;10.20;99.90;;;;;;5097338;28;20217;-81
2020/12/02 04:00:31;;;;;;;24.60;14.80;;;10.20;99.90;;;;;;5097405;28;20200;-81
2020/12/02 04:02:57;;;;;;;24.67;14.10;;;10.30;99.90;;;;;;5097147;28;20190;-81
2020/12/02 04:05:24;;;;;;;30.17;14.50;;;10.30;99.90;;;;;;5097340;28;20190;-81
2020/12/02 04:07:51;;;;;;;24.52;14.43;;;10.30;99.90;;;;;;5097283;28;20200;-81
2020/12/02 04:10:18;;;;;;;24.83;15.23;;;10.30;99.90;;;;;;5097074;28;20197;-81
2020/12/02 04:12:45;;;;;;;26.20;14.13;;;10.30;99.90;;;;;;5097016;28;20200;-81
2020/12/02 04:15:13;;;;;;;25.48;16.23;;;10.30;99.90;;;;;;5097043;28;20726;-81
2020/12/02 04:17:39;;;;;;;27.27;16.23;;;10.30;99.90;;;;;;5097033;28;20314;-81
2020/12/02 04:20:06;;;;;;;23.75;15.27;;;10.30;99.90;;;;;;5096940;28;20656;-81
2020/12/02 04:22:32;;;;;;;30.80;16.20;;;10.30;99.90;;;;;;5095721;28;20652;-82
2020/12/02 04:24:59;;;;;;;25.58;16.55;;;10.30;99.90;;;;;;5096741;28;20224;-81
2020/12/02 04:27:26;;;;;;;29.27;16.10;;;10.30;99.90;;;;;;5096971;28;20596;-81
2020/12/02 04:29:52;;;;;;;27.05;16.45;;;10.40;99.90;;;;;;5097060;28;20190;-82
2020/12/02 04:32:19;;;;;;;31.55;17.55;;;10.30;99.90;;;;;;5096739;28;20198;-81
2020/12/02 04:34:45;;;;;;;32.22;17.55;;;10.30;99.90;;;;;;5096687;28;20198;-82
2020/12/02 04:37:11;;;;;;;35.53;16.33;;;10.30;99.90;;;;;;5096775;28;20205;-82
2020/12/02 04:39:37;;;;;;;32.85;18.50;;;10.30;99.90;;;;;;5096637;28;20255;-81
2020/12/02 04:42:06;;;;;;;36.13;19.20;;;10.40;99.90;;;;;;5096403;28;20201;-82
2020/12/02 04:44:34;;;;;;;33.17;19.20;;;10.40;99.90;;;;;;5096368;28;20228;-82
2020/12/02 04:47:01;;;;;;;36.88;18.38;;;10.30;99.90;;;;;;5096533;28;20671;-81
2020/12/02 04:49:30;;;;;;;29.63;17.90;;;10.30;99.90;;;;;;5096416;28;20194;-81
2020/12/02 04:52:03;;;;;;;32.15;18.13;;;10.30;99.90;;;;;;5096273;28;20224;-82
2020/12/02 04:54:29;;;;;;;34.83;19.10;;;10.30;99.90;;;;;;5096262;28;20200;-81
2020/12/02 04:56:55;;;;;;;34.17;16.10;;;10.30;99.90;;;;;;5096395;28;20194;-81
2020/12/02 04:59:35;;;;;;;33.25;17.48;;;10.30;99.90;;;;;;5095070;28;20194;-81
2020/12/02 05:02:01;;;;;;;28.25;18.33;;;10.30;99.90;;;;;;5096076;28;20207;-81
2020/12/02 05:04:29;;;;;;;37.35;19.77;;;10.40;99.90;;;;;;5095892;28;20695;-82
2020/12/02 05:07:13;;;;;;;31.70;17.60;;;10.30;99.90;;;;;;5096090;28;20204;-81
2020/12/02 05:09:53;;;;;;;38.72;18.15;;;10.30;99.90;;;;;;5096288;28;20600;-82
2020/12/02 05:12:23;;;;;;;31.42;17.65;;;10.30;99.90;;;;;;5095941;28;20204;-81
2020/12/02 05:14:50;;;;;;;40.20;19.00;;;10.30;99.90;;;;;;5096103;28;20197;-81
2020/12/02 05:17:21;;;;;;;25.35;16.70;;;10.40;99.90;;;;;;5095685;28;20217;-81
2020/12/02 05:20:01;;;;;;;30.48;17.40;;;10.30;99.90;;;;;;5095842;28;20565;-81
2020/12/02 05:22:28;;;;;;;28.92;16.33;;;10.20;99.90;;;;;;5095744;28;20194;-81
2020/12/02 05:24:54;;;;;;;28.77;16.67;;;10.20;99.90;;;;;;5095759;28;20246;-81
2020/12/02 05:27:29;;;;;;;27.45;15.85;;;10.20;99.90;;;;;;5095771;28;20197;-81
2020/12/02 05:30:03;;;;;;;21.73;13.55;;;10.20;99.90;;;;;;5095806;28;20235;-81
2020/12/02 05:32:29;;;;;;;22.27;14.43;;;10.10;99.90;;;;;;5095513;28;20665;-81
2020/12/02 05:34:56;;;;;;;27.38;15.63;;;10.00;99.90;;;;;;5095533;28;20554;-82
2020/12/02 05:37:33;;;;;;;22.55;14.60;;;10.00;99.90;;;;;;5095393;28;20193;-82
2020/12/02 05:40:05;;;;;;;21.90;15.02;;;9.90;99.90;;;;;;5095386;28;20186;-82
2020/12/02 05:42:36;;;;;;;25.92;16.17;;;9.90;99.90;;;;;;5095529;28;20194;-82
2020/12/02 05:45:18;;;;;;;24.45;16.17;;;9.80;99.90;;;;;;5095064;28;20221;-82
2020/12/02 05:47:49;;;;;;;25.58;16.35;;;9.80;99.90;;;;;;5095348;28;20664;-82
2020/12/02 05:50:16;;;;;;;25.65;16.02;;;9.90;99.90;;;;;;5095124;28;20217;-82
2020/12/02 05:52:45;;;;;;;26.63;15.75;;;9.80;99.90;;;;;;5095188;28;20664;-82
2020/12/02 05:55:16;;;;;;;30.63;16.70;;;9.80;99.90;;;;;;5095197;28;20196;-82
2020/12/02 05:57:54;;;;;;;25.10;16.52;;;9.80;99.90;;;;;;5095135;28;20663;-82
2020/12/02 06:00:22;;;;;;;27.50;16.65;;;9.80;99.90;;;;;;5095032;28;20197;-81
2020/12/02 06:02:51;;;;;;;28.73;16.30;;;9.80;99.90;;;;;;5094891;28;20198;-81
2020/12/02 06:05:18;;;;;;;27.95;16.35;;;9.90;99.90;;;;;;5094718;28;20217;-81
2020/12/02 06:07:47;;;;;;;26.08;16.95;;;9.80;99.90;;;;;;5094840;28;20196;-81
2020/12/02 06:10:15;;;;;;;20.05;13.80;;;9.80;99.90;;;;;;5094625;28;20198;-81
2020/12/02 06:12:43;;;;;;;27.90;15.60;;;9.80;99.90;;;;;;5094620;28;20194;-81
2020/12/02 06:15:18;;;;;;;26.80;16.17;;;9.80;99.90;;;;;;5094689;28;20194;-81
2020/12/02 06:17:45;;;;;;;22.25;14.20;;;9.80;99.90;;;;;;5094469;28;20691;-81
2020/12/02 06:20:11;;;;;;;19.75;14.05;;;9.80;99.90;;;;;;5094655;28;20583;-81
2020/12/02 06:22:49;;;;;;;19.70;13.05;;;9.80;99.90;;;;;;5094514;28;20302;-81
2020/12/02 06:25:41;;;;;;;25.02;14.63;;;9.80;99.90;;;;;;5094368;28;20232;-82
2020/12/02 06:28:09;;;;;;;22.10;15.27;;;9.70;99.90;;;;;;5094823;28;20198;-82
2020/12/02 06:30:36;;;;;;;20.35;12.70;;;9.70;99.90;;;;;;5094624;28;20691;-81
2020/12/02 06:33:15;;;;;;;19.33;13.68;;;9.80;99.90;;;;;;5094443;28;20656;-81
2020/12/02 06:35:41;;;;;;;24.52;14.80;;;9.60;99.90;;;;;;5094290;28;20207;-81
2020/12/02 06:38:27;;;;;;;20.27;13.88;;;9.60;99.90;;;;;;5094494;28;20198;-82
2020/12/02 06:41:31;;;;;;;20.58;14.32;;;9.50;99.90;;;;;;5094234;28;20193;-81
2020/12/02 06:44:31;;;;;;;24.05;15.27;;;9.50;99.90;;;;;;5031977;28;20219;-81
2020/12/02 06:47:18;;;;;;;22.20;13.75;;;9.50;99.90;;;;;;5094228;28;20202;-81
2020/12/02 06:49:45;;;;;;;26.05;15.40;;;9.60;99.90;;;;;;5094250;28;20199;-81
2020/12/02 06:52:24;;;;;;;26.98;15.38;;;9.60;99.90;;;;;;5094208;28;20193;-81
2020/12/02 06:54:50;;;;;;;22.75;15.20;;;9.70;99.90;;;;;;5094107;28;20650;-82
2020/12/02 06:57:22;;;;;;;24.83;15.52;;;9.70;99.90;;;;;;5093914;28;20197;-82
2020/12/02 06:59:56;;;;;;;27.00;17.40;;;9.80;99.90;;;;;;5094128;28;20207;-81
2020/12/02 07:02:35;;;;;;;31.73;17.52;;;9.80;99.90;;;;;;5093804;28;20200;-81
2020/12/02 07:05:06;;;;;;;23.45;16.98;;;9.90;99.90;;;;;;5093782;28;20221;-82
2020/12/02 07:07:33;;;;;;;27.80;17.10;;;9.90;99.90;;;;;;5093845;28;20701;-82
2020/12/02 07:09:59;;;;;;;30.92;18.30;;;9.90;99.90;;;;;;5093687;28;20193;-82
2020/12/02 07:12:30;;;;;;;28.48;18.65;;;9.90;99.90;;;;;;5093445;28;20640;-81
2020/12/02 07:15:00;;;;;;;33.67;20.23;;;9.90;99.90;;;;;;5093770;28;20200;-82
2020/12/02 07:17:27;;;;;;;32.50;20.30;;;10.00;99.90;;;;;;5093625;28;20231;-81
2020/12/02 07:19:54;;;;;;;35.03;22.58;;;10.00;99.90;;;;;;5093514;28;20198;-82
2020/12/02 07:22:25;;;;;;;46.72;23.63;;;10.00;99.90;;;;;;5092840;28;20200;-81
2020/12/02 07:24:54;;;;;;;37.75;21.58;;;10.00;99.90;;;;;;5093508;28;20620;-84
2020/12/02 07:27:22;;;;;;;38.97;22.52;;;10.00;99.90;;;;;;5093579;28;20247;-81
2020/12/02 07:29:56;;;;;;;35.67;22.65;;;10.10;99.90;;;;;;5093742;28;20193;-83
2020/12/02 07:32:23;;;;;;;38.85;23.00;;;10.10;99.90;;;;;;5093453;28;20205;-81
2020/12/02 07:34:50;;;;;;;42.75;24.80;;;10.10;99.90;;;;;;5093505;28;20649;-81
2020/12/02 07:37:18;;;;;;;36.60;21.98;;;10.20;99.90;;;;;;5093487;28;20194;-82
2020/12/02 07:39:47;;;;;;;34.00;22.13;;;10.20;99.90;;;;;;5093484;28;20194;-81
2020/12/02 07:42:19;;;;;;;37.85;21.58;;;10.30;99.90;;;;;;5093301;28;20197;-81
2020/12/02 07:44:49;;;;;;;35.35;23.25;;;10.30;99.90;;;;;;5093302;28;20571;-81
2020/12/02 07:47:17;;;;;;;39.90;22.83;;;10.30;99.90;;;;;;5093684;28;20198;-81
2020/12/02 07:49:56;;;;;;;33.50;22.35;;;10.30;99.90;;;;;;5093083;28;20193;-81
2020/12/02 07:52:27;;;;;;;34.40;23.40;;;10.30;99.90;;;;;;5093232;28;20197;-81
2020/12/02 07:54:55;;;;;;;36.53;22.40;;;10.30;99.90;;;;;;5093341;28;20193;-81
2020/12/02 07:57:24;;;;;;;35.17;23.70;;;10.30;99.90;;;;;;5093279;28;20194;-81
2020/12/02 08:00:13;;;;;;;34.15;21.88;;;10.30;99.90;;;;;;5093195;28;20251;-81
2020/12/02 08:02:42;;;;;;;29.95;20.60;;;10.30;99.90;;;;;;5093279;28;20212;-82
2020/12/02 08:05:25;;;;;;;29.73;19.77;;;10.30;99.90;;;;;;5093016;28;20217;-82
2020/12/02 08:08:01;;;;;;;27.88;19.33;;;10.20;99.90;;;;;;5093353;28;20207;-82
2020/12/02 08:10:31;;;;;;;26.35;18.58;;;10.20;99.90;;;;;;5093018;28;20671;-80
2020/12/02 08:13:01;;;;;;;22.45;16.80;;;10.20;99.90;;;;;;5093150;28;20198;-81
2020/12/02 08:15:28;;;;;;;16.63;13.10;;;10.20;99.90;;;;;;5093079;28;20203;-81
2020/12/02 08:18:14;;;;;;;20.30;13.48;;;10.30;99.90;;;;;;5092856;28;20227;-81
2020/12/02 08:20:42;;;;;;;20.58;14.55;;;10.30;99.90;;;;;;5092924;28;20385;-81
2020/12/02 08:23:14;;;;;;;20.90;15.68;;;10.30;99.90;;;;;;5092909;28;20652;-82
2020/12/02 08:25:52;;;;;;;19.27;14.48;;;10.30;99.90;;;;;;5092830;28;20232;-82
2020/12/02 08:28:23;;;;;;;17.52;12.30;;;10.40;99.90;;;;;;5092955;28;20282;-81
2020/12/02 08:31:03;;;;;;;15.45;12.18;;;10.40;99.90;;;;;;5093136;28;20742;-81
2020/12/02 08:33:30;;;;;;;17.05;12.75;;;10.40;99.90;;;;;;5095430;28;20193;-81
2020/12/02 08:36:05;;;;;;;16.90;13.20;;;10.50;99.90;;;;;;5096583;28;20204;-83
2020/12/02 08:38:35;;;;;;;15.45;13.10;;;10.40;99.90;;;;;;5096755;28;20196;-81
2020/12/02 08:41:03;;;;;;;21.33;14.85;;;10.40;99.90;;;;;;5096600;28;20236;-82
2020/12/02 08:43:38;;;;;;;17.05;13.80;;;10.40;99.90;;;;;;5096512;28;20288;-81
2020/12/02 08:46:21;;;;;;;18.27;14.05;;;10.40;99.90;;;;;;5096756;28;20214;-81
2020/12/02 08:48:50;;;;;;;14.88;11.65;;;10.40;99.90;;;;;;5096432;28;20193;-81
2020/12/02 08:51:19;;;;;;;16.38;12.50;;;10.40;99.90;;;;;;5096331;28;20209;-81
2020/12/02 08:53:46;;;;;;;18.30;14.00;;;10.40;99.90;;;;;;5096391;28;20194;-82
2020/12/02 08:56:25;;;;;;;16.85;13.27;;;10.50;99.90;;;;;;5096652;28;20198;-81
2020/12/02 08:58:51;;;;;;;17.10;13.60;;;10.40;99.90;;;;;;5096475;28;20193;-82
2020/12/02 09:01:17;;;;;;;18.48;14.55;;;10.50;99.90;;;;;;5096168;28;20190;-81
2020/12/02 09:03:44;;;;;;;23.05;16.67;;;10.50;99.90;;;;;;5095957;28;20197;-80
2020/12/02 09:06:14;;;;;;;19.45;15.00;;;10.50;99.90;;;;;;5096143;28;20671;-83
2020/12/02 09:08:41;;;;;;;20.88;15.23;;;10.50;99.90;;;;;;5096113;28;20189;-81
2020/12/02 09:11:07;;;;;;;19.23;15.55;;;10.50;99.90;;;;;;5096055;28;20201;-81
2020/12/02 09:13:34;;;;;;;23.40;17.48;;;10.50;99.90;;;;;;5095928;28;20567;-80
2020/12/02 09:16:01;;;;;;;24.35;17.33;;;10.60;99.90;;;;;;5095905;28;20193;-80
2020/12/02 09:18:27;;;;;;;24.27;17.27;;;10.60;99.90;;;;;;5095892;28;20193;-80
2020/12/02 09:20:53;;;;;;;21.80;16.33;;;10.70;99.90;;;;;;5095879;28;20210;-80
2020/12/02 09:23:19;;;;;;;22.63;18.20;;;10.70;99.90;;;;;;5095931;28;20193;-82
2020/12/02 09:25:46;;;;;;;23.55;17.17;;;10.70;99.90;;;;;;5095599;28;20228;-80
2020/12/02 09:28:12;;;;;;;23.65;17.63;;;10.70;99.90;;;;;;5095604;28;20202;-81
2020/12/02 09:30:39;;;;;;;27.88;18.23;;;10.70;99.90;;;;;;5095594;28;20194;-80
2020/12/02 09:33:05;;;;;;;22.48;17.13;;;10.80;99.90;;;;;;5095595;28;20204;-81
2020/12/02 09:35:31;;;;;;;22.70;17.50;;;10.80;99.90;;;;;;5095554;28;20193;-80
2020/12/02 09:37:58;;;;;;;21.30;17.40;;;10.80;99.90;;;;;;5095485;28;20200;-82
2020/12/02 09:40:24;;;;;;;17.73;14.45;;;10.80;99.90;;;;;;5095171;28;20190;-81
2020/12/02 09:43:16;;;;;;;20.77;14.65;;;10.90;99.90;;;;;;5094284;28;20229;-82
2020/12/02 09:45:51;;;;;;;18.75;14.18;;;10.80;99.90;;;;;;5093826;28;20692;-81
2020/12/02 09:48:19;;;;;;;20.05;15.77;;;10.80;99.90;;;;;;5094462;28;20200;-81
2020/12/02 09:50:46;;;;;;;21.77;16.92;;;10.80;99.90;;;;;;5094320;28;20571;-81
2020/12/02 09:53:20;;;;;;;20.13;15.40;;;10.80;99.90;;;;;;5094281;28;20197;-81
2020/12/02 09:55:47;;;;;;;19.50;14.48;;;10.90;99.90;;;;;;5094754;28;20203;-81
2020/12/02 09:58:14;;;;;;;20.48;15.20;;;10.90;99.90;;;;;;5095077;28;20207;-81
2020/12/02 10:00:41;;;;;;;20.20;15.45;;;10.90;99.90;;;;;;5095163;28;20236;-81
2020/12/02 10:03:44;;;;;;;25.02;18.05;;;10.90;99.90;;;;;;5095220;28;20201;-80
2020/12/02 10:06:39;;;;;;;25.52;18.13;;;10.80;99.90;;;;;;5094939;28;20201;-81
2020/12/02 10:09:36;;;;;;;24.40;17.60;;;10.60;99.90;;;;;;5092359;28;20194;-81
2020/12/02 10:12:13;;;;;;;21.98;16.85;;;10.60;99.90;;;;;;5092023;28;20194;-80
2020/12/02 10:15:01;;;;;;;21.63;16.90;;;10.70;99.90;;;;;;5094926;28;20193;-81
2020/12/02 10:17:46;;;;;;;25.48;17.80;;;10.70;99.90;;;;;;5093377;28;20875;-81
2020/12/02 10:20:34;;;;;;;22.35;16.58;;;10.70;99.90;;;;;;5094596;28;20218;-81
2020/12/02 10:23:29;;;;;;;22.33;17.20;;;10.70;99.90;;;;;;5094606;28;20201;-81
2020/12/02 10:26:10;;;;;;;25.58;17.85;;;10.70;99.90;;;;;;5094548;28;20221;-81
2020/12/02 10:28:45;;;;;;;26.33;18.15;;;10.70;99.90;;;;;;5094656;28;20197;-81
2020/12/02 10:31:19;;;;;;;24.42;18.73;;;10.70;99.90;;;;;;5094634;28;20283;-81
2020/12/02 10:34:02;;;;;;;23.02;18.60;;;10.80;99.90;;;;;;5094368;28;20810;-81
2020/12/02 10:36:31;;;;;;;24.10;17.90;;;10.80;99.90;;;;;;5094467;28;20197;-81
2020/12/02 10:39:04;;;;;;;22.30;16.83;;;10.80;99.90;;;;;;5094368;28;20200;-80
2020/12/02 10:41:40;;;;;;;24.35;17.63;;;10.70;99.90;;;;;;5094577;28;20201;-81
2020/12/02 10:44:17;;;;;;;26.40;16.73;;;10.80;99.90;;;;;;5094241;28;20199;-81
2020/12/02 10:47:05;;;;;;;22.05;15.80;;;10.80;99.90;;;;;;5094105;28;20203;-81
2020/12/02 10:49:33;;;;;;;22.23;17.50;;;10.70;99.90;;;;;;5094086;28;20197;-81
2020/12/02 10:52:02;;;;;;;20.58;14.30;;;10.70;99.90;;;;;;5093847;28;20197;-80
2020/12/02 10:54:34;;;;;;;23.75;16.48;;;10.70;99.90;;;;;;5094136;28;20197;-81
2020/12/02 10:57:05;;;;;;;22.40;16.02;;;10.80;99.90;;;;;;5093309;28;20200;-81
2020/12/02 10:59:32;;;;;;;23.63;16.50;;;10.80;99.90;;;;;;5093927;28;20212;-82
2020/12/02 11:01:58;;;;;;;21.90;16.98;;;10.90;99.90;;;;;;5093860;28;20189;-80
2020/12/02 11:04:24;;;;;;;18.58;14.10;;;10.90;99.90;;;;;;5093901;28;20222;-81
2020/12/02 11:07:09;;;;;;;22.33;17.35;;;10.90;99.90;;;;;;5093884;28;20193;-80
2020/12/02 11:09:58;;;;;;;23.92;15.25;;;10.90;99.90;;;;;;5093864;28;20547;-81
2020/12/02 11:12:38;;;;;;;25.08;16.15;;;11.00;99.90;;;;;;5093659;28;20197;-82
2020/12/02 11:15:22;;;;;;;21.20;16.10;;;10.90;99.90;;;;;;5094018;28;20194;-81
2020/12/02 11:18:07;;;;;;;18.63;14.50;;;11.00;99.90;;;;;;5093534;28;20221;-80
2020/12/02 11:20:44;;;;;;;20.30;16.75;;;11.10;99.90;;;;;;5093493;28;20703;-81
2020/12/02 11:23:19;;;;;;;24.33;16.55;;;11.20;99.90;;;;;;5093704;28;20194;-81
2020/12/02 11:25:58;;;;;;;20.05;14.80;;;11.20;99.90;;;;;;5093486;28;20216;-81
2020/12/02 11:28:25;;;;;;;23.95;15.20;;;11.20;99.90;;;;;;5093727;28;20197;-81
2020/12/02 11:30:51;;;;;;;23.65;16.60;;;11.10;99.90;;;;;;5093271;28;20194;-80
2020/12/02 11:33:44;;;;;;;21.58;15.90;;;11.10;99.90;;;;;;5093383;28;20194;-80
2020/12/02 11:36:38;;;;;;;20.77;16.67;;;11.00;99.90;;;;;;5093539;28;20197;-81
2020/12/02 11:39:15;;;;;;;21.98;16.08;;;11.00;99.90;;;;;;5093442;28;20201;-80
2020/12/02 11:41:48;;;;;;;22.33;16.67;;;10.90;99.90;;;;;;5093564;28;20250;-83
2020/12/02 11:44:21;;;;;;;20.27;16.05;;;10.90;99.90;;;;;;5093406;28;20703;-83
2020/12/02 11:46:55;;;;;;;22.63;15.85;;;10.90;99.90;;;;;;5093416;28;20193;-80
2020/12/02 11:49:30;;;;;;;29.40;18.75;;;10.90;99.90;;;;;;5093364;28;20194;-81
2020/12/02 11:52:08;;;;;;;25.10;17.92;;;10.80;99.90;;;;;;5093261;28;20639;-81
2020/12/02 11:54:35;;;;;;;27.92;18.88;;;10.70;99.90;;;;;;5093301;28;20209;-81
2020/12/02 11:57:04;;;;;;;27.25;17.88;;;10.80;99.90;;;;;;5093143;28;20196;-81
2020/12/02 11:59:33;;;;;;;23.27;15.82;;;10.70;99.90;;;;;;5093034;28;20197;-81
2020/12/02 12:02:18;;;;;;;24.75;16.13;;;10.80;99.90;;;;;;5093358;28;20204;-81
2020/12/02 12:04:58;;;;;;;22.67;15.60;;;10.90;99.90;;;;;;5092368;28;20221;-80
2020/12/02 12:07:34;;;;;;;30.60;20.05;;;10.90;99.90;;;;;;5093964;28;20204;-81
2020/12/02 12:10:07;;;;;;;22.30;16.83;;;10.90;99.90;;;;;;5097066;28;20193;-80
2020/12/02 12:12:41;;;;;;;25.23;16.08;;;10.90;99.90;;;;;;5097119;28;20197;-80
2020/12/02 12:15:16;;;;;;;26.08;18.35;;;10.80;99.90;;;;;;5097168;28;20550;-80
2020/12/02 12:17:45;;;;;;;28.75;15.98;;;10.80;99.90;;;;;;5096952;28;20221;-81
2020/12/02 12:20:16;;;;;;;27.35;19.88;;;10.80;99.90;;;;;;5097006;28;20214;-81
2020/12/02 12:22:45;;;;;;;24.77;18.08;;;10.80;99.90;;;;;;5097014;28;20197;-80
2020/12/02 12:25:17;;;;;;;25.48;16.83;;;10.70;99.90;;;;;;5096672;28;20227;-83
2020/12/02 12:27:47;;;;;;;28.88;20.42;;;10.70;99.90;;;;;;5096821;28;20197;-81
2020/12/02 12:30:14;;;;;;;28.38;19.55;;;10.70;99.90;;;;;;5096790;28;20309;-81
2020/12/02 12:32:51;;;;;;;30.00;19.05;;;10.70;99.90;;;;;;5096626;28;20555;-82
2020/12/02 12:35:22;;;;;;;27.80;18.52;;;10.70;99.90;;;;;;5096915;28;20200;-80
2020/12/02 12:38:07;;;;;;;31.38;19.20;;;10.70;99.90;;;;;;5096632;28;20246;-80
2020/12/02 12:40:37;;;;;;;24.33;17.73;;;10.60;99.90;;;;;;5096944;28;20541;-81
2020/12/02 12:43:06;;;;;;;25.30;17.20;;;10.70;99.90;;;;;;5096638;28;20584;-80
2020/12/02 12:45:47;;;;;;;25.90;17.65;;;10.70;99.90;;;;;;5096479;28;20231;-80
2020/12/02 12:48:16;;;;;;;26.52;17.52;;;10.70;99.90;;;;;;5096781;28;20750;-81
2020/12/02 12:50:44;;;;;;;23.15;17.02;;;10.70;99.90;;;;;;5096346;28;20213;-81
2020/12/02 12:53:12;;;;;;;32.97;18.77;;;10.70;99.90;;;;;;5096297;28;20202;-80